KCSM/CSM METAR and TAF weather

Enter ICAO airport designator
Station Type Date Time Source
KCSM METAR 2021/03/03 19:53 UTC NOAA

KCSM 031953Z 18018G26KT 10SM CLR 19/M04 A3000 RMK AO2 PK WND 17026/1951 SLP152 T01941039


Station Type Date Time Source
KCSM Decoded METAR 2021/03/03 19:53 UTC NOAA

CLINTON-SHERMAN AIRPORT, OK, United States (KCSM) 35-21E 99-12W 588M
Mar 03, 2021 - 02:53 PM EST / 2021.03.03 1953 UTC
Wind: from the S (180 degrees) at 21 MPH (18 KT) gusting to 30 MPH (26 KT):0
Visibility: 10 mile(s):0
Sky conditions: clear
Temperature: 66.9 F (19.4 C)
Dew Point: 25.0 F (-3.9 C)
Relative Humidity: 20%
Pressure (altimeter): 30 in. Hg (1015 hPa)
ob: KCSM 031953Z 18018G26KT 10SM CLR 19/M04 A3000 RMK AO2 PK WND 17026/1951 SLP152 T01941039
cycle: 20

Station Type Date Time Source
KCSM TAF 2021/03/03 18:22 UTC NOAA

TAF KCSM 031720Z 0318/0418 20016G22KT P6SM SKC
FM040000 14010KT P6SM FEW250
FM041600 18014KT P6SM BKN150

Example: see airport list